Time;durP1;ratioP1;P1;durP2;ratioP2;P2;SDS_P1;SDS_P2;PMS_P1;PMS_P2;Temp;Humidity;BMP_temperature;BMP_pressure;BME280_temperature;BME280_humidity;BME280_pressure;Samples;Min_cycle;Max_cycle;Signal;HPM_P1;HPM_P2
2024/01/03 00:01:42;;;;;;;3.35;1.95;;;12.50;77.90;;;;;;5047874;28;20567;-62
2024/01/03 00:04:09;;;;;;;2.70;0.85;;;12.50;77.50;;;;;;5048594;28;20081;-61
2024/01/03 00:06:35;;;;;;;4.97;1.33;;;12.50;76.90;;;;;;5045349;28;20061;-61
2024/01/03 00:09:01;;;;;;;5.38;1.60;;;12.60;76.80;;;;;;5059800;28;20509;-66
2024/01/03 00:11:32;;;;;;;4.95;1.55;;;12.60;76.30;;;;;;5052414;28;20100;-62
2024/01/03 00:14:05;;;;;;;7.57;1.15;;;12.60;76.10;;;;;;5048404;28;20036;-61
2024/01/03 00:16:33;;;;;;;7.80;1.85;;;12.70;76.20;;;;;;5027922;28;20021;-61
2024/01/03 00:18:59;;;;;;;12.45;3.58;;;12.70;76.60;;;;;;5052245;28;20107;-61
2024/01/03 00:21:29;;;;;;;18.10;6.40;;;12.60;76.60;;;;;;5046156;28;20067;-62
2024/01/03 00:24:04;;;;;;;13.57;4.78;;;12.60;75.80;;;;;;5051355;28;20029;-61
2024/01/03 00:26:32;;;;;;;9.82;4.85;;;12.70;75.80;;;;;;5048205;28;20478;-61
2024/01/03 00:28:59;;;;;;;13.02;4.93;;;12.70;76.00;;;;;;5049371;28;20522;-62
2024/01/03 00:31:38;;;;;;;8.13;2.95;;;12.70;75.20;;;;;;5042923;28;20060;-61
2024/01/03 00:34:23;;;;;;;5.22;2.65;;;12.70;74.40;;;;;;5045395;28;20037;-62
2024/01/03 00:36:54;;;;;;;4.28;1.60;;;12.80;74.70;;;;;;5041054;28;20037;-61
2024/01/03 00:39:26;;;;;;;13.43;3.47;;;12.80;74.60;;;;;;5051979;28;20419;-61
2024/01/03 00:41:52;;;;;;;5.13;2.87;;;12.80;74.60;;;;;;5050133;28;20112;-62
2024/01/03 00:44:17;;;;;;;9.38;3.35;;;12.80;74.50;;;;;;5042377;28;20346;-67
2024/01/03 00:46:44;;;;;;;4.13;2.08;;;12.80;74.60;;;;;;5048499;28;20453;-67
2024/01/03 00:49:11;;;;;;;4.13;2.55;;;12.80;74.50;;;;;;5045936;28;20032;-67
2024/01/03 00:51:37;;;;;;;5.97;2.05;;;12.80;74.40;;;;;;5050339;28;20106;-67
2024/01/03 00:54:03;;;;;;;3.38;1.42;;;12.90;73.80;;;;;;5044378;28;20481;-66
2024/01/03 00:56:29;;;;;;;4.65;1.42;;;12.90;73.80;;;;;;5048681;28;20048;-67
2024/01/03 00:58:55;;;;;;;7.68;1.30;;;12.90;73.80;;;;;;5052251;28;20040;-67
2024/01/03 01:01:21;;;;;;;6.68;1.73;;;12.90;73.60;;;;;;5050368;28;20037;-67
2024/01/03 01:03:47;;;;;;;7.45;1.92;;;12.90;72.60;;;;;;5056555;28;20037;-66
2024/01/03 01:06:13;;;;;;;4.15;1.10;;;12.90;72.80;;;;;;5057895;28;20434;-67
2024/01/03 01:08:39;;;;;;;17.88;2.67;;;12.90;73.00;;;;;;5052208;28;20119;-67
2024/01/03 01:11:04;;;;;;;4.80;1.98;;;12.90;72.90;;;;;;5058265;28;20033;-62
2024/01/03 01:13:30;;;;;;;12.15;2.05;;;12.90;73.00;;;;;;5045908;28;20036;-67
2024/01/03 01:15:56;;;;;;;5.75;1.13;;;12.90;73.00;;;;;;5050886;28;20128;-62
2024/01/03 01:18:21;;;;;;;6.32;1.42;;;12.90;73.10;;;;;;5049836;28;20036;-62
2024/01/03 01:20:47;;;;;;;4.22;1.50;;;12.90;73.30;;;;;;5053449;28;20033;-66
2024/01/03 01:23:13;;;;;;;3.42;1.20;;;12.80;73.80;;;;;;5051825;28;20043;-62
2024/01/03 01:25:39;;;;;;;8.90;1.88;;;12.80;74.00;;;;;;5047147;28;20450;-67
2024/01/03 01:28:04;;;;;;;6.10;1.98;;;12.80;74.50;;;;;;5051122;28;20025;-66
2024/01/03 01:30:30;;;;;;;14.95;2.92;;;12.80;75.10;;;;;;5052193;28;20029;-62
2024/01/03 01:32:56;;;;;;;11.52;1.50;;;12.70;74.80;;;;;;5047860;28;20041;-62
2024/01/03 01:35:21;;;;;;;4.05;1.55;;;12.70;74.80;;;;;;5056419;28;20056;-62
2024/01/03 01:37:48;;;;;;;13.90;2.10;;;12.70;74.90;;;;;;5049835;28;20033;-61
2024/01/03 01:40:14;;;;;;;4.78;2.60;;;12.80;75.00;;;;;;5055556;28;20456;-61
2024/01/03 01:42:44;;;;;;;10.25;2.72;;;12.70;74.80;;;;;;5060449;28;20025;-61
2024/01/03 01:45:10;;;;;;;8.95;2.45;;;12.80;74.80;;;;;;5049338;28;20025;-62
2024/01/03 01:47:40;;;;;;;2.20;1.33;;;12.80;74.60;;;;;;5058571;28;20120;-62
2024/01/03 01:50:08;;;;;;;4.82;1.60;;;12.80;74.60;;;;;;5059663;28;20481;-61
2024/01/03 01:52:34;;;;;;;6.20;2.22;;;12.80;74.50;;;;;;5053488;28;20383;-61
2024/01/03 01:55:00;;;;;;;4.13;2.03;;;12.80;74.60;;;;;;5053078;28;20029;-62
2024/01/03 01:57:29;;;;;;;6.07;2.50;;;12.80;74.80;;;;;;5065030;28;20034;-66
2024/01/03 01:59:55;;;;;;;14.57;2.20;;;12.80;75.00;;;;;;5056308;28;20123;-62
2024/01/03 02:02:21;;;;;;;4.80;1.42;;;12.80;75.00;;;;;;5054752;28;20143;-62
2024/01/03 02:04:48;;;;;;;5.50;1.88;;;12.80;75.10;;;;;;5059836;28;20031;-61
2024/01/03 02:07:14;;;;;;;13.50;2.38;;;12.90;75.20;;;;;;5053901;28;20136;-62
2024/01/03 02:09:42;;;;;;;6.70;1.63;;;12.90;75.20;;;;;;5054596;28;20436;-66
2024/01/03 02:12:08;;;;;;;5.60;2.00;;;12.90;75.10;;;;;;5055341;28;20028;-66
2024/01/03 02:14:34;;;;;;;4.97;1.50;;;12.80;75.10;;;;;;5055050;28;20501;-66
2024/01/03 02:17:00;;;;;;;4.38;1.77;;;12.80;75.10;;;;;;5057126;28;20029;-66
2024/01/03 02:19:26;;;;;;;9.77;2.30;;;12.80;74.70;;;;;;5050110;28;20116;-66
2024/01/03 02:21:51;;;;;;;5.75;2.88;;;12.70;74.20;;;;;;5055717;28;20028;-66
2024/01/03 02:24:18;;;;;;;9.13;2.40;;;12.80;74.60;;;;;;5059153;28;20031;-66
2024/01/03 02:26:44;;;;;;;3.55;1.90;;;12.80;74.50;;;;;;5055756;28;20032;-67
2024/01/03 02:29:09;;;;;;;4.95;1.80;;;12.80;74.20;;;;;;5052005;28;20041;-66
2024/01/03 02:31:35;;;;;;;6.38;2.30;;;12.80;74.50;;;;;;5059321;28;20504;-67
2024/01/03 02:34:01;;;;;;;9.40;1.65;;;12.80;74.50;;;;;;5054229;28;21079;-67
2024/01/03 02:36:27;;;;;;;20.30;2.33;;;12.90;74.40;;;;;;5049427;28;20025;-62
2024/01/03 02:38:53;;;;;;;13.68;2.58;;;12.80;74.40;;;;;;5042779;28;20056;-62
2024/01/03 02:41:19;;;;;;;12.40;2.58;;;12.80;74.30;;;;;;5049093;28;20037;-62
2024/01/03 02:43:44;;;;;;;6.68;1.25;;;12.80;74.20;;;;;;5060127;28;20110;-63
2024/01/03 02:46:10;;;;;;;10.02;2.00;;;12.80;74.30;;;;;;5056939;28;20317;-62
2024/01/03 02:48:42;;;;;;;4.68;1.63;;;12.80;74.20;;;;;;5051686;28;20455;-62
2024/01/03 02:51:16;;;;;;;13.30;2.38;;;12.80;74.30;;;;;;5056610;28;20375;-67
2024/01/03 02:53:41;;;;;;;2.33;1.48;;;12.80;74.30;;;;;;5047923;28;20548;-67
2024/01/03 02:56:07;;;;;;;8.00;2.10;;;12.80;74.40;;;;;;5055117;28;20028;-67
2024/01/03 02:58:33;;;;;;;7.97;2.80;;;12.80;74.60;;;;;;5043310;28;20583;-67
2024/01/03 03:00:58;;;;;;;5.03;1.67;;;12.80;74.90;;;;;;5044855;28;20063;-68
2024/01/03 03:03:24;;;;;;;13.32;2.22;;;12.80;75.10;;;;;;5048629;28;20029;-68
2024/01/03 03:05:50;;;;;;;9.50;2.35;;;12.80;75.40;;;;;;5052882;28;20475;-67
2024/01/03 03:08:15;;;;;;;12.52;2.22;;;12.80;75.60;;;;;;5057247;28;20087;-67
2024/01/03 03:10:41;;;;;;;7.72;1.83;;;12.80;75.70;;;;;;5059012;28;20090;-73
2024/01/03 03:13:07;;;;;;;11.13;2.75;;;12.80;75.70;;;;;;5057947;28;20037;-63
2024/01/03 03:15:33;;;;;;;6.43;2.00;;;12.80;75.90;;;;;;5057143;28;20028;-63
2024/01/03 03:17:58;;;;;;;6.38;2.15;;;12.70;76.00;;;;;;5056037;28;20697;-68
2024/01/03 03:20:24;;;;;;;10.07;1.45;;;12.70;76.00;;;;;;5060858;28;20041;-67
2024/01/03 03:22:50;;;;;;;11.20;2.50;;;12.80;76.10;;;;;;5061554;28;20500;-67
2024/01/03 03:25:15;;;;;;;9.15;2.70;;;12.80;76.20;;;;;;5054117;28;20082;-68
2024/01/03 03:27:41;;;;;;;7.28;2.35;;;12.80;76.10;;;;;;5051578;28;20041;-68
2024/01/03 03:30:07;;;;;;;6.32;1.85;;;12.70;76.00;;;;;;5057777;28;20513;-63
2024/01/03 03:32:33;;;;;;;7.35;1.92;;;12.70;76.00;;;;;;5057973;28;20044;-63
2024/01/03 03:34:59;;;;;;;8.73;2.70;;;12.70;76.10;;;;;;5055624;28;20040;-63
2024/01/03 03:37:25;;;;;;;6.75;2.40;;;12.70;76.30;;;;;;5050072;28;20033;-63
2024/01/03 03:39:50;;;;;;;14.18;2.20;;;12.70;76.60;;;;;;5049399;28;20063;-68
2024/01/03 03:42:18;;;;;;;5.53;2.25;;;12.70;76.90;;;;;;5053535;28;20078;-68
2024/01/03 03:44:44;;;;;;;7.18;2.08;;;12.70;77.20;;;;;;5044343;28;20565;-68
2024/01/03 03:47:10;;;;;;;10.18;1.95;;;12.70;77.60;;;;;;5049882;28;20048;-68
2024/01/03 03:49:36;;;;;;;13.27;3.17;;;12.60;78.60;;;;;;5048294;28;20041;-67
2024/01/03 03:52:01;;;;;;;11.68;2.83;;;12.60;79.10;;;;;;5049711;28;20122;-68
2024/01/03 03:54:27;;;;;;;10.02;1.95;;;12.50;79.80;;;;;;5047187;28;20492;-68
2024/01/03 03:56:53;;;;;;;12.20;3.50;;;12.50;79.00;;;;;;5053082;28;20021;-63
2024/01/03 03:59:18;;;;;;;11.20;2.35;;;12.50;79.00;;;;;;5054054;28;20388;-62
2024/01/03 04:01:51;;;;;;;5.07;2.15;;;12.50;78.60;;;;;;5048825;28;20437;-63
2024/01/03 04:04:20;;;;;;;6.60;2.13;;;12.60;78.60;;;;;;5055090;28;20032;-63
2024/01/03 04:06:46;;;;;;;7.18;1.95;;;12.50;78.70;;;;;;5055032;28;20047;-67
2024/01/03 04:09:13;;;;;;;6.13;2.40;;;12.50;78.90;;;;;;5051624;28;20032;-68
2024/01/03 04:11:43;;;;;;;8.65;2.50;;;12.50;78.90;;;;;;5054036;28;20021;-67
2024/01/03 04:14:10;;;;;;;6.05;1.50;;;12.50;78.90;;;;;;5057531;28;20029;-68
2024/01/03 04:16:36;;;;;;;7.97;2.47;;;12.50;78.80;;;;;;5050050;28;20029;-67
2024/01/03 04:19:02;;;;;;;3.35;1.75;;;12.60;78.70;;;;;;5045445;28;20032;-68
2024/01/03 04:21:32;;;;;;;8.70;3.40;;;12.50;78.40;;;;;;5052664;28;20119;-67
2024/01/03 04:23:58;;;;;;;5.95;1.80;;;12.50;78.40;;;;;;5052949;28;20024;-68
2024/01/03 04:26:24;;;;;;;7.18;2.05;;;12.50;78.30;;;;;;5051928;28;20032;-63
2024/01/03 04:28:50;;;;;;;4.60;1.77;;;12.50;78.20;;;;;;5047582;28;20029;-63
2024/01/03 04:31:16;;;;;;;6.15;1.88;;;12.50;78.10;;;;;;5053133;28;20017;-63
2024/01/03 04:33:45;;;;;;;7.10;1.92;;;12.60;78.20;;;;;;5060768;28;20044;-63
2024/01/03 04:36:11;;;;;;;8.52;2.72;;;12.50;78.20;;;;;;5045120;28;20044;-63
2024/01/03 04:38:37;;;;;;;10.90;2.47;;;12.50;78.20;;;;;;5051051;28;20040;-63
2024/01/03 04:41:03;;;;;;;6.57;1.70;;;12.60;78.30;;;;;;5051205;28;20048;-63
2024/01/03 04:43:29;;;;;;;8.65;2.88;;;12.60;78.30;;;;;;5050535;28;20391;-63
2024/01/03 04:45:55;;;;;;;10.80;2.20;;;12.60;78.30;;;;;;5046534;28;20045;-63
2024/01/03 04:48:20;;;;;;;4.07;2.30;;;12.60;78.30;;;;;;5056367;28;20028;-63
2024/01/03 04:50:46;;;;;;;8.48;2.85;;;12.60;78.50;;;;;;5052858;28;20499;-62
2024/01/03 04:53:12;;;;;;;10.82;2.83;;;12.60;78.50;;;;;;5040857;28;20087;-62
2024/01/03 04:55:38;;;;;;;10.27;3.42;;;12.60;78.70;;;;;;5046312;28;20037;-67
2024/01/03 04:58:04;;;;;;;14.90;3.45;;;12.60;78.70;;;;;;5050787;28;20047;-67
2024/01/03 05:00:30;;;;;;;15.52;3.28;;;12.60;78.60;;;;;;5045688;28;20677;-67
2024/01/03 05:02:56;;;;;;;7.72;2.72;;;12.60;78.60;;;;;;5042904;28;20033;-68
2024/01/03 05:05:22;;;;;;;7.82;2.97;;;12.60;78.50;;;;;;5058647;28;20512;-67
2024/01/03 05:07:48;;;;;;;8.55;2.67;;;12.70;78.30;;;;;;5040404;28;20033;-67
2024/01/03 05:10:13;;;;;;;7.40;1.95;;;12.70;78.10;;;;;;5052857;28;20024;-67
2024/01/03 05:12:39;;;;;;;4.25;2.28;;;12.70;77.90;;;;;;5058001;28;20036;-67
2024/01/03 05:15:05;;;;;;;7.25;2.78;;;12.60;77.70;;;;;;5052138;28;20033;-63
2024/01/03 05:17:31;;;;;;;11.23;2.83;;;12.60;77.70;;;;;;5054824;28;20040;-63
2024/01/03 05:19:57;;;;;;;9.30;2.28;;;12.60;77.70;;;;;;5059623;28;20041;-63
2024/01/03 05:22:23;;;;;;;6.80;2.60;;;12.60;77.70;;;;;;5047458;28;20361;-63
2024/01/03 05:24:49;;;;;;;15.73;3.20;;;12.60;77.70;;;;;;5058311;28;20032;-63
2024/01/03 05:27:15;;;;;;;14.13;2.83;;;12.60;77.70;;;;;;5055349;28;20055;-63
2024/01/03 05:29:41;;;;;;;7.13;2.53;;;12.60;77.90;;;;;;5059148;28;20048;-63
2024/01/03 05:32:07;;;;;;;7.85;2.55;;;12.50;78.00;;;;;;5048114;28;20079;-63
2024/01/03 05:34:33;;;;;;;10.25;2.42;;;12.50;77.80;;;;;;5056210;28;20051;-63
2024/01/03 05:36:58;;;;;;;9.40;3.67;;;12.50;78.40;;;;;;5058282;28;20044;-67
2024/01/03 05:39:24;;;;;;;10.82;2.08;;;12.50;78.60;;;;;;5057431;28;20022;-68
2024/01/03 05:41:50;;;;;;;3.80;1.40;;;12.50;78.90;;;;;;5055059;28;20586;-67
2024/01/03 05:44:16;;;;;;;3.70;1.33;;;12.50;79.40;;;;;;5040284;28;20033;-67
2024/01/03 05:46:42;;;;;;;9.07;2.83;;;12.40;79.60;;;;;;5052657;28;20037;-67
2024/01/03 05:49:08;;;;;;;2.33;1.50;;;12.40;79.80;;;;;;5051940;28;20055;-67
2024/01/03 05:51:34;;;;;;;5.82;2.42;;;12.40;80.80;;;;;;5052795;28;20362;-67
2024/01/03 05:54:00;;;;;;;7.90;2.22;;;12.30;81.30;;;;;;5050985;28;20115;-68
2024/01/03 05:56:27;;;;;;;5.78;1.85;;;12.30;81.80;;;;;;5048619;28;20044;-68
2024/01/03 05:58:53;;;;;;;8.27;1.95;;;12.20;82.50;;;;;;5057767;28;20071;-67
2024/01/03 06:01:19;;;;;;;3.95;1.98;;;12.20;82.80;;;;;;5047316;28;20496;-68
2024/01/03 06:03:44;;;;;;;7.43;2.30;;;12.10;83.10;;;;;;5049998;28;20033;-68
2024/01/03 06:06:10;;;;;;;5.43;1.67;;;12.10;83.10;;;;;;5058957;28;20029;-68
2024/01/03 06:08:36;;;;;;;7.40;1.17;;;12.10;83.10;;;;;;5053167;28;20362;-68
2024/01/03 06:11:02;;;;;;;6.80;2.33;;;12.10;82.90;;;;;;5055170;28;20037;-68
2024/01/03 06:13:28;;;;;;;3.80;1.55;;;12.10;82.70;;;;;;5046098;28;20027;-68
2024/01/03 06:15:54;;;;;;;2.85;1.27;;;12.10;82.70;;;;;;5054638;28;20029;-68
2024/01/03 06:18:23;;;;;;;4.65;2.25;;;12.10;82.60;;;;;;5050340;28;20036;-68
2024/01/03 06:20:48;;;;;;;5.78;1.75;;;12.20;82.50;;;;;;5056965;28;20109;-68
2024/01/03 06:23:14;;;;;;;6.03;1.83;;;12.10;82.30;;;;;;5049130;28;20582;-62
2024/01/03 06:25:40;;;;;;;2.53;1.13;;;12.10;82.30;;;;;;5056168;28;20369;-68
2024/01/03 06:28:05;;;;;;;2.20;1.38;;;12.20;82.70;;;;;;5048326;28;20493;-62
2024/01/03 06:30:31;;;;;;;4.20;1.65;;;12.20;82.00;;;;;;5058477;28;20112;-62
2024/01/03 06:32:57;;;;;;;2.88;1.33;;;12.20;81.80;;;;;;5039437;28;20051;-62
2024/01/03 06:35:22;;;;;;;4.20;1.60;;;12.20;81.70;;;;;;5050107;28;20112;-62
2024/01/03 06:37:48;;;;;;;1.17;0.98;;;12.20;81.50;;;;;;5056539;28;20492;-68
2024/01/03 06:40:14;;;;;;;2.83;1.10;;;12.20;81.40;;;;;;5052525;28;20412;-62
2024/01/03 06:42:40;;;;;;;3.55;1.17;;;12.20;81.50;;;;;;5050583;28;20028;-61
2024/01/03 06:45:06;;;;;;;1.52;0.82;;;12.20;81.40;;;;;;5047046;28;20538;-61
2024/01/03 06:47:32;;;;;;;1.98;1.48;;;12.20;81.40;;;;;;5049105;28;20034;-66
2024/01/03 06:49:58;;;;;;;4.72;1.38;;;12.20;81.10;;;;;;5055253;28;20040;-66
2024/01/03 06:52:23;;;;;;;2.83;1.30;;;12.20;81.10;;;;;;5047998;28;20033;-68
2024/01/03 06:54:50;;;;;;;1.55;1.05;;;12.20;81.00;;;;;;5065859;28;20025;-67
2024/01/03 06:57:16;;;;;;;5.43;1.45;;;12.20;81.10;;;;;;5048479;28;20455;-66
2024/01/03 06:59:41;;;;;;;3.15;0.90;;;12.20;81.10;;;;;;5051048;28;20068;-66
2024/01/03 07:02:08;;;;;;;1.85;0.93;;;12.20;80.90;;;;;;5045647;28;20092;-66
2024/01/03 07:04:33;;;;;;;1.80;0.85;;;12.20;81.00;;;;;;5046214;28;20043;-67
2024/01/03 07:06:59;;;;;;;1.02;0.88;;;12.20;80.90;;;;;;5049678;28;20021;-64
2024/01/03 07:09:25;;;;;;;2.45;0.80;;;12.10;80.90;;;;;;5043020;28;20037;-65
2024/01/03 07:11:50;;;;;;;0.60;0.45;;;12.10;80.80;;;;;;5036829;28;20025;-65
2024/01/03 07:14:16;;;;;;;1.50;0.60;;;12.10;80.60;;;;;;5054618;28;20070;-66
2024/01/03 07:16:42;;;;;;;2.20;0.90;;;12.00;80.50;;;;;;5048297;28;20114;-66
2024/01/03 07:19:08;;;;;;;0.63;0.63;;;12.00;80.50;;;;;;5055912;28;20098;-66
2024/01/03 07:21:33;;;;;;;1.20;0.60;;;12.00;80.50;;;;;;5060746;28;20048;-66
2024/01/03 07:23:59;;;;;;;5.13;0.60;;;12.00;80.30;;;;;;5050669;28;20456;-67
2024/01/03 07:26:25;;;;;;;0.77;0.50;;;11.90;80.40;;;;;;5052540;28;20031;-67
2024/01/03 07:28:51;;;;;;;0.47;0.47;;;11.90;80.60;;;;;;5055847;28;20060;-66
2024/01/03 07:31:16;;;;;;;0.47;0.43;;;11.90;80.70;;;;;;5047101;28;20021;-67
2024/01/03 07:33:42;;;;;;;1.55;0.40;;;11.90;80.90;;;;;;5046085;28;20053;-66
2024/01/03 07:36:08;;;;;;;2.60;0.82;;;11.80;81.20;;;;;;5051817;28;20075;-66
2024/01/03 07:38:34;;;;;;;0.70;0.32;;;11.70;81.80;;;;;;5057163;28;20097;-66
2024/01/03 07:41:00;;;;;;;1.92;0.30;;;11.60;82.50;;;;;;5062128;28;20060;-64
2024/01/03 07:43:29;;;;;;;0.52;0.40;;;11.50;82.90;;;;;;5049545;28;20472;-67
2024/01/03 07:45:55;;;;;;;0.70;0.30;;;11.40;83.10;;;;;;5051284;28;20054;-67
2024/01/03 07:48:21;;;;;;;0.30;0.30;;;11.40;83.20;;;;;;5047222;28;20044;-66
2024/01/03 07:50:47;;;;;;;2.20;0.30;;;11.40;83.10;;;;;;5056679;28;20028;-66
2024/01/03 07:53:12;;;;;;;1.50;0.30;;;11.30;82.70;;;;;;5042034;28;20036;-66
2024/01/03 07:55:38;;;;;;;0.68;0.35;;;11.30;82.70;;;;;;5047632;28;20075;-66
2024/01/03 07:58:04;;;;;;;0.68;0.35;;;11.30;82.70;;;;;;5043677;28;20120;-66
2024/01/03 08:00:30;;;;;;;0.63;0.30;;;11.30;82.50;;;;;;5050993;28;20028;-69
2024/01/03 08:02:56;;;;;;;0.65;0.55;;;11.30;82.20;;;;;;5048436;28;20509;-66
2024/01/03 08:05:22;;;;;;;1.55;0.38;;;11.30;82.30;;;;;;5045589;28;20076;-66
2024/01/03 08:07:48;;;;;;;1.10;0.38;;;11.20;82.30;;;;;;5040744;28;20056;-66
2024/01/03 08:10:14;;;;;;;1.52;0.40;;;11.20;82.50;;;;;;5050330;28;20491;-67
2024/01/03 08:12:40;;;;;;;0.20;0.20;;;11.20;82.50;;;;;;5049128;28;20064;-66
2024/01/03 08:15:07;;;;;;;0.20;0.20;;;11.20;82.60;;;;;;5049135;28;20030;-67
2024/01/03 08:17:33;;;;;;;1.50;0.52;;;11.20;82.50;;;;;;5043407;28;20392;-66
2024/01/03 08:19:58;;;;;;;0.60;0.30;;;11.30;82.40;;;;;;5047361;28;20029;-66
2024/01/03 08:22:24;;;;;;;0.68;0.40;;;11.20;82.30;;;;;;5047850;28;20048;-66
2024/01/03 08:24:50;;;;;;;0.63;0.40;;;11.20;82.30;;;;;;5045653;28;20491;-68
2024/01/03 08:27:17;;;;;;;3.30;0.40;;;11.20;82.40;;;;;;5052210;28;20028;-68
2024/01/03 08:29:43;;;;;;;0.32;0.32;;;11.20;82.50;;;;;;5053485;28;20028;-63
2024/01/03 08:32:09;;;;;;;0.95;0.55;;;11.20;82.40;;;;;;5049923;28;20120;-63
2024/01/03 08:34:35;;;;;;;2.55;0.85;;;11.30;82.50;;;;;;5045382;28;20028;-63
2024/01/03 08:37:01;;;;;;;0.82;0.43;;;11.30;82.40;;;;;;5045702;28;20083;-66
2024/01/03 08:39:26;;;;;;;4.10;1.27;;;11.30;82.40;;;;;;5045317;28;20430;-67
2024/01/03 08:41:53;;;;;;;0.73;0.60;;;11.30;83.10;;;;;;5055184;28;20082;-66
2024/01/03 08:44:20;;;;;;;0.50;0.50;;;11.30;82.80;;;;;;5043953;28;20096;-69
2024/01/03 08:46:46;;;;;;;1.35;0.40;;;11.30;83.00;;;;;;5049182;28;20478;-66
2024/01/03 08:49:12;;;;;;;0.38;0.35;;;11.30;83.10;;;;;;5051328;28;20375;-64
2024/01/03 08:51:38;;;;;;;2.25;0.65;;;11.40;83.40;;;;;;5038565;28;20626;-62
2024/01/03 08:54:04;;;;;;;2.92;0.85;;;11.40;83.70;;;;;;5046731;28;20041;-63
2024/01/03 08:56:29;;;;;;;1.17;0.60;;;11.40;83.90;;;;;;5033495;28;20025;-62
2024/01/03 08:58:55;;;;;;;1.75;0.88;;;11.40;84.30;;;;;;5047902;28;20029;-61
2024/01/03 09:01:22;;;;;;;3.42;0.90;;;11.30;84.50;;;;;;5054771;28;20040;-63
2024/01/03 09:03:49;;;;;;;2.95;0.98;;;11.40;84.70;;;;;;5044999;28;20028;-62
2024/01/03 09:06:22;;;;;;;5.18;1.10;;;11.40;85.00;;;;;;5051674;28;20501;-62
2024/01/03 09:08:50;;;;;;;0.60;0.60;;;11.30;85.30;;;;;;5042732;28;20025;-63
2024/01/03 09:11:26;;;;;;;3.60;0.80;;;11.40;85.60;;;;;;5032868;28;20033;-64
2024/01/03 09:13:52;;;;;;;1.95;0.60;;;11.40;85.60;;;;;;5043276;28;20029;-63
2024/01/03 09:16:20;;;;;;;3.25;0.70;;;11.30;85.90;;;;;;5045012;28;20043;-63
2024/01/03 09:18:46;;;;;;;2.83;1.40;;;11.30;86.20;;;;;;5046646;28;20025;-63
2024/01/03 09:21:12;;;;;;;2.72;1.80;;;11.30;86.40;;;;;;5049877;28;20114;-64
2024/01/03 09:23:38;;;;;;;3.83;1.40;;;11.30;86.40;;;;;;5042515;28;20020;-66
2024/01/03 09:26:04;;;;;;;4.40;0.88;;;11.30;86.70;;;;;;5046183;28;20067;-64
2024/01/03 09:28:31;;;;;;;1.60;1.17;;;11.30;86.60;;;;;;5050273;28;20040;-65
2024/01/03 09:30:56;;;;;;;1.50;0.95;;;11.40;86.70;;;;;;5048985;28;20037;-64
2024/01/03 09:33:23;;;;;;;3.40;1.30;;;11.40;86.70;;;;;;5045710;28;20045;-64
2024/01/03 09:35:49;;;;;;;4.47;1.58;;;11.40;86.80;;;;;;5047831;28;20025;-64
2024/01/03 09:38:15;;;;;;;2.97;1.20;;;11.50;86.80;;;;;;5046097;28;20539;-63
2024/01/03 09:40:41;;;;;;;1.95;0.75;;;11.50;86.80;;;;;;5052178;28;20345;-63
2024/01/03 09:43:08;;;;;;;10.20;1.70;;;11.40;86.90;;;;;;5053353;28;20037;-62
2024/01/03 09:45:34;;;;;;;2.85;1.50;;;11.40;87.10;;;;;;5048040;28;20037;-62
2024/01/03 09:48:00;;;;;;;3.65;1.83;;;11.40;87.10;;;;;;5039117;28;20060;-63
2024/01/03 09:50:26;;;;;;;3.38;1.23;;;11.40;87.20;;;;;;5046437;28;20091;-62
2024/01/03 09:52:55;;;;;;;4.00;1.00;;;11.40;87.40;;;;;;5046040;28;20044;-62
2024/01/03 09:55:21;;;;;;;2.45;1.38;;;11.40;87.60;;;;;;5046575;28;20018;-63
2024/01/03 09:57:49;;;;;;;2.60;0.90;;;11.40;87.70;;;;;;5048469;28;20033;-63
2024/01/03 10:00:15;;;;;;;3.97;1.52;;;11.40;87.90;;;;;;5051765;28;20120;-62
2024/01/03 10:02:45;;;;;;;10.07;1.50;;;11.40;87.90;;;;;;5047702;28;20563;-66
2024/01/03 10:05:18;;;;;;;4.10;1.65;;;11.40;87.90;;;;;;5043929;28;20035;-65
2024/01/03 10:07:44;;;;;;;5.75;1.65;;;11.40;87.90;;;;;;5049346;28;20039;-62
2024/01/03 10:10:10;;;;;;;6.38;0.90;;;11.50;87.90;;;;;;5052245;28;20029;-62
2024/01/03 10:12:36;;;;;;;3.95;1.65;;;11.40;87.80;;;;;;5046335;28;20025;-62
2024/01/03 10:15:17;;;;;;;2.58;1.40;;;11.50;88.00;;;;;;5044402;28;20694;-62
2024/01/03 10:17:45;;;;;;;5.10;2.13;;;11.40;88.00;;;;;;5049050;28;20036;-62
2024/01/03 10:20:27;;;;;;;4.45;1.38;;;11.40;88.10;;;;;;5046663;28;20039;-62
2024/01/03 10:23:10;;;;;;;4.47;1.90;;;11.50;88.10;;;;;;5048449;28;20036;-62
2024/01/03 10:25:37;;;;;;;6.05;1.63;;;11.50;88.10;;;;;;5041217;28;20048;-62
2024/01/03 10:28:11;;;;;;;6.03;2.03;;;11.50;88.00;;;;;;5048607;28;20078;-62
2024/01/03 10:30:37;;;;;;;5.45;1.30;;;11.50;88.00;;;;;;5052130;28;20373;-65
2024/01/03 10:33:08;;;;;;;3.30;1.13;;;11.50;87.90;;;;;;5046347;28;20048;-64
2024/01/03 10:35:40;;;;;;;9.85;2.60;;;11.50;87.80;;;;;;5044592;28;20028;-64
2024/01/03 10:38:05;;;;;;;8.10;2.22;;;11.60;87.70;;;;;;5046097;28;20529;-64
2024/01/03 10:40:33;;;;;;;4.40;1.83;;;11.60;87.70;;;;;;5055865;28;20033;-64
2024/01/03 10:42:59;;;;;;;8.00;1.75;;;11.60;87.50;;;;;;5046413;28;20025;-64
2024/01/03 10:45:26;;;;;;;9.93;2.42;;;11.70;87.40;;;;;;5047078;28;20550;-64
2024/01/03 10:47:52;;;;;;;6.68;2.08;;;11.70;87.10;;;;;;5044401;28;20037;-64
2024/01/03 10:50:18;;;;;;;8.07;2.17;;;11.80;86.50;;;;;;5044930;28;20492;-64
2024/01/03 10:52:45;;;;;;;4.72;1.40;;;12.00;86.40;;;;;;5042282;28;20052;-64
2024/01/03 10:55:20;;;;;;;7.45;2.33;;;12.30;85.60;;;;;;5047663;28;20085;-64
2024/01/03 10:58:20;;;;;;;8.00;1.88;;;12.50;84.60;;;;;;5047677;28;20033;-62
2024/01/03 11:01:11;;;;;;;3.63;2.10;;;12.60;83.60;;;;;;5041214;28;20128;-62
2024/01/03 11:03:50;;;;;;;4.63;1.65;;;12.70;83.20;;;;;;5040158;28;20040;-62
2024/01/03 11:06:29;;;;;;;4.10;1.42;;;12.60;82.90;;;;;;5040773;28;20041;-64
2024/01/03 11:09:02;;;;;;;8.13;1.73;;;12.60;83.30;;;;;;5040772;28;20200;-61
2024/01/03 11:11:28;;;;;;;7.82;1.70;;;12.50;83.20;;;;;;5038277;28;20024;-62
2024/01/03 11:13:55;;;;;;;6.45;2.53;;;12.40;83.40;;;;;;5035453;28;20041;-62
2024/01/03 11:16:40;;;;;;;6.13;2.83;;;12.30;83.40;;;;;;5022376;28;20507;-61
2024/01/03 11:19:08;;;;;;;8.60;1.77;;;12.20;83.60;;;;;;5057718;28;20037;-66
2024/01/03 11:21:35;;;;;;;4.68;1.52;;;12.20;83.90;;;;;;5050566;28;20063;-65
2024/01/03 11:24:21;;;;;;;20.20;2.65;;;12.20;84.10;;;;;;5045210;28;20036;-65
2024/01/03 11:26:55;;;;;;;6.97;2.28;;;12.20;84.10;;;;;;5039919;28;20037;-64
2024/01/03 11:29:42;;;;;;;4.57;1.23;;;12.20;84.30;;;;;;5046121;28;20044;-63
2024/01/03 11:32:08;;;;;;;5.60;2.38;;;12.40;84.30;;;;;;5048484;28;20103;-64
2024/01/03 11:34:43;;;;;;;6.65;1.25;;;12.60;83.80;;;;;;5047817;28;20081;-62
2024/01/03 11:37:11;;;;;;;8.10;1.90;;;12.70;83.30;;;;;;5052351;28;20013;-63
2024/01/03 11:39:43;;;;;;;6.55;1.83;;;12.60;82.80;;;;;;5043235;28;20028;-62
2024/01/03 11:42:09;;;;;;;8.97;2.90;;;12.50;82.90;;;;;;5043486;28;20112;-61
2024/01/03 11:44:35;;;;;;;5.40;1.95;;;12.50;82.30;;;;;;5050860;28;20659;-62
2024/01/03 11:47:03;;;;;;;7.13;2.50;;;12.50;82.10;;;;;;5052612;28;20032;-63
2024/01/03 11:49:29;;;;;;;7.05;2.08;;;12.60;81.70;;;;;;5043066;28;20084;-63
2024/01/03 11:51:57;;;;;;;7.90;1.95;;;12.60;81.10;;;;;;5044722;28;20432;-64
2024/01/03 11:54:23;;;;;;;9.63;2.05;;;12.60;81.00;;;;;;5039888;28;20103;-63
2024/01/03 11:56:49;;;;;;;9.10;2.10;;;12.60;80.90;;;;;;5045013;28;20504;-63
2024/01/03 11:59:20;;;;;;;8.43;2.00;;;12.60;80.70;;;;;;5047095;28;20065;-63
2024/01/03 12:01:58;;;;;;;4.23;2.33;;;12.60;80.70;;;;;;5033890;28;20145;-65
2024/01/03 12:04:25;;;;;;;8.80;3.05;;;12.50;80.70;;;;;;5050830;28;20115;-64
2024/01/03 12:06:59;;;;;;;6.88;3.15;;;12.50;81.00;;;;;;5045358;28;20095;-66
2024/01/03 12:09:31;;;;;;;3.95;1.55;;;12.50;81.00;;;;;;5040256;28;20076;-62
2024/01/03 12:11:57;;;;;;;7.20;2.08;;;12.50;81.10;;;;;;5050334;28;20032;-62
2024/01/03 12:14:23;;;;;;;8.90;2.17;;;12.60;81.30;;;;;;5050740;28;20029;-62
2024/01/03 12:16:53;;;;;;;8.20;2.40;;;12.70;81.10;;;;;;5044655;28;20032;-64
2024/01/03 12:19:27;;;;;;;10.50;3.55;;;12.70;81.00;;;;;;5051799;28;20037;-63
2024/01/03 12:22:02;;;;;;;10.48;2.65;;;12.80;81.90;;;;;;5042617;28;20494;-65
2024/01/03 12:24:41;;;;;;;6.05;2.28;;;12.80;81.30;;;;;;5038276;28;20028;-63
2024/01/03 12:27:08;;;;;;;7.32;3.10;;;12.80;81.40;;;;;;5049702;28;20058;-63
2024/01/03 12:29:34;;;;;;;11.20;2.95;;;12.90;81.20;;;;;;5052028;28;20036;-64
2024/01/03 12:32:15;;;;;;;12.82;2.00;;;12.90;81.10;;;;;;5048968;28;20041;-64
2024/01/03 12:34:42;;;;;;;6.68;2.20;;;12.90;80.80;;;;;;5052394;28;20036;-64
2024/01/03 12:37:07;;;;;;;3.75;1.98;;;12.80;80.90;;;;;;5038603;28;20075;-65
2024/01/03 12:39:42;;;;;;;7.43;1.52;;;12.70;81.00;;;;;;5047000;28;20024;-64
2024/01/03 12:42:12;;;;;;;3.03;1.73;;;12.60;81.50;;;;;;5048178;28;20032;-64
2024/01/03 12:44:43;;;;;;;4.13;2.05;;;12.60;81.90;;;;;;5047657;28;20036;-64
2024/01/03 12:47:10;;;;;;;4.13;1.55;;;12.60;81.90;;;;;;5041251;28;20495;-65